createdAt,value
2023-03-10T00:02:21.637Z,83.20
2023-03-10T00:04:52.283Z,83.50
2023-03-10T00:07:19.396Z,83.20
2023-03-10T00:09:47.702Z,82.70
2023-03-10T00:12:14.557Z,82.50
2023-03-10T00:14:41.329Z,82.50
2023-03-10T00:17:08.167Z,82.00
2023-03-10T00:19:35.095Z,81.90
2023-03-10T00:22:04.003Z,81.50
2023-03-10T00:24:30.698Z,81.50
2023-03-10T00:26:57.526Z,81.70
2023-03-10T00:29:24.982Z,81.20
2023-03-10T00:31:51.802Z,81.00
2023-03-10T00:34:18.704Z,80.80
2023-03-10T00:36:45.476Z,80.80
2023-03-10T00:39:12.385Z,80.70
2023-03-10T00:41:42.440Z,80.60
2023-03-10T00:44:09.761Z,80.60
2023-03-10T00:46:39.120Z,80.60
2023-03-10T00:49:07.363Z,81.40
2023-03-10T00:51:34.674Z,81.60
2023-03-10T00:54:02.317Z,81.70
2023-03-10T00:56:29.385Z,81.50
2023-03-10T00:58:58.064Z,81.70
2023-03-10T01:01:29.028Z,81.30
2023-03-10T01:03:56.980Z,81.50
2023-03-10T01:06:23.792Z,81.50
2023-03-10T01:08:50.603Z,81.50
2023-03-10T01:11:18.772Z,81.50
2023-03-10T01:13:45.994Z,82.10
2023-03-10T01:16:12.676Z,82.20
2023-03-10T01:18:39.971Z,82.00
2023-03-10T01:21:07.316Z,82.00
2023-03-10T01:23:34.191Z,82.10
2023-03-10T01:26:00.954Z,82.20
2023-03-10T01:28:27.928Z,82.60
2023-03-10T01:30:57.230Z,82.30
2023-03-10T01:33:24.162Z,82.70
2023-03-10T01:35:50.896Z,83.30
2023-03-10T01:38:17.684Z,83.50
2023-03-10T01:40:47.956Z,83.50
2023-03-10T01:43:20.873Z,83.60
2023-03-10T01:45:47.490Z,84.10
2023-03-10T01:48:15.173Z,83.80
2023-03-10T01:50:46.628Z,84.40
2023-03-10T01:53:14.675Z,83.70
2023-03-10T01:55:43.579Z,83.50
2023-03-10T01:58:10.808Z,83.70
2023-03-10T02:00:37.540Z,83.50
2023-03-10T02:03:13.094Z,83.20
2023-03-10T02:05:51.583Z,84.00
2023-03-10T02:08:18.622Z,83.50
2023-03-10T02:10:46.399Z,83.40
2023-03-10T02:13:13.097Z,83.40
2023-03-10T02:15:40.688Z,83.80
2023-03-10T02:18:09.722Z,84.10
2023-03-10T02:20:41.369Z,84.70
2023-03-10T02:23:10.236Z,84.10
2023-03-10T02:25:53.783Z,84.40
2023-03-10T02:28:20.462Z,84.30
2023-03-10T02:30:48.267Z,85.00
2023-03-10T02:33:18.384Z,84.80
2023-03-10T02:35:45.302Z,84.80
2023-03-10T02:38:11.942Z,85.50
2023-03-10T02:40:40.806Z,85.50
2023-03-10T02:43:13.630Z,85.20
2023-03-10T02:45:41.562Z,85.20
2023-03-10T02:48:09.703Z,85.00
2023-03-10T02:50:37.848Z,85.20
2023-03-10T02:53:10.775Z,85.50
2023-03-10T02:55:37.381Z,85.20
2023-03-10T02:58:04.297Z,85.60
2023-03-10T03:00:31.275Z,85.40
2023-03-10T03:02:58.026Z,85.80
2023-03-10T03:05:24.636Z,85.50
2023-03-10T03:07:51.485Z,85.90
2023-03-10T03:10:18.808Z,86.00
2023-03-10T03:12:45.655Z,85.90
2023-03-10T03:15:12.289Z,86.10
2023-03-10T03:17:38.898Z,86.20
2023-03-10T03:20:14.744Z,85.70
2023-03-10T03:22:45.688Z,85.60
2023-03-10T03:25:14.166Z,85.60
2023-03-10T03:27:41.314Z,85.10
2023-03-10T03:30:09.560Z,85.00
2023-03-10T03:32:36.851Z,85.10
2023-03-10T03:35:04.333Z,85.20
2023-03-10T03:37:30.951Z,85.60
2023-03-10T03:39:57.620Z,85.10
2023-03-10T03:42:24.486Z,85.00
2023-03-10T03:44:51.150Z,85.30
2023-03-10T03:47:18.060Z,86.00
2023-03-10T03:49:44.736Z,85.80
2023-03-10T03:52:11.583Z,86.20
2023-03-10T03:54:42.515Z,86.20
2023-03-10T03:57:09.361Z,86.30
2023-03-10T03:59:36.006Z,86.50
2023-03-10T04:02:02.845Z,86.80
2023-03-10T04:04:29.688Z,86.50
2023-03-10T04:06:56.346Z,86.50
2023-03-10T04:09:23.157Z,86.50
2023-03-10T04:11:49.996Z,86.60
2023-03-10T04:14:16.688Z,86.70
2023-03-10T04:16:43.569Z,86.90
2023-03-10T04:19:10.202Z,86.80
2023-03-10T04:21:37.003Z,86.80
2023-03-10T04:24:04.102Z,86.40
2023-03-10T04:26:30.846Z,86.80
2023-03-10T04:28:58.194Z,86.90
2023-03-10T04:31:25.022Z,86.90
2023-03-10T04:33:52.523Z,86.80
2023-03-10T04:36:20.121Z,86.60
2023-03-10T04:38:46.901Z,86.40
2023-03-10T04:41:13.994Z,86.70
2023-03-10T04:43:42.553Z,86.60
2023-03-10T04:46:10.170Z,86.00
2023-03-10T04:48:39.065Z,86.20
2023-03-10T04:51:07.867Z,85.50
2023-03-10T04:53:35.231Z,85.60
2023-03-10T04:56:03.163Z,85.50
2023-03-10T04:58:29.994Z,85.10
2023-03-10T05:01:03.129Z,85.30
2023-03-10T05:03:30.278Z,85.30
2023-03-10T05:05:57.052Z,84.80
2023-03-10T05:08:24.110Z,84.80
2023-03-10T05:10:50.763Z,84.60
2023-03-10T05:13:17.491Z,84.70
2023-03-10T05:15:44.268Z,84.90
2023-03-10T05:18:11.910Z,85.20
2023-03-10T05:20:39.119Z,84.70
2023-03-10T05:23:07.086Z,84.70
2023-03-10T05:25:33.831Z,84.40
2023-03-10T05:28:00.484Z,84.30
2023-03-10T05:30:27.555Z,84.90
2023-03-10T05:32:54.296Z,84.50
2023-03-10T05:35:21.000Z,84.40
2023-03-10T05:37:47.685Z,84.40
2023-03-10T05:40:19.497Z,84.70
2023-03-10T05:42:47.299Z,84.80
2023-03-10T05:45:14.840Z,84.70
2023-03-10T05:47:42.238Z,84.20
2023-03-10T05:50:09.773Z,84.30
2023-03-10T05:52:37.459Z,84.10
2023-03-10T05:55:05.087Z,84.10
2023-03-10T05:57:32.252Z,84.10
2023-03-10T05:59:58.828Z,84.10
2023-03-10T06:02:26.257Z,84.40
2023-03-10T06:04:52.902Z,84.20
2023-03-10T06:07:19.505Z,84.80
2023-03-10T06:09:46.152Z,85.00
2023-03-10T06:12:12.758Z,85.00
2023-03-10T06:14:39.687Z,85.10
2023-03-10T06:17:06.302Z,85.10
2023-03-10T06:19:33.103Z,85.00
2023-03-10T06:21:59.768Z,85.10
2023-03-10T06:24:28.033Z,85.50
2023-03-10T06:26:54.868Z,85.30
2023-03-10T06:29:21.570Z,85.20
2023-03-10T06:31:48.236Z,85.50
2023-03-10T06:34:14.924Z,85.40
2023-03-10T06:36:41.956Z,85.30
2023-03-10T06:39:08.620Z,85.20
2023-03-10T06:41:35.894Z,85.10
2023-03-10T06:44:03.215Z,85.00
2023-03-10T06:46:30.214Z,84.80
2023-03-10T06:48:57.025Z,84.80
2023-03-10T06:51:23.641Z,84.80
2023-03-10T06:53:50.586Z,84.90
2023-03-10T06:56:21.421Z,84.80
2023-03-10T06:58:48.705Z,84.60
2023-03-10T07:01:33.876Z,84.40
2023-03-10T07:04:04.053Z,84.30
2023-03-10T07:06:30.826Z,84.10
2023-03-10T07:08:57.777Z,84.00
2023-03-10T07:11:24.987Z,84.00
2023-03-10T07:13:51.868Z,83.90
2023-03-10T07:16:18.877Z,83.70
2023-03-10T07:18:45.519Z,83.20
2023-03-10T07:21:14.647Z,82.90
2023-03-10T07:23:41.513Z,82.50
2023-03-10T07:26:09.075Z,81.90
2023-03-10T07:28:36.938Z,81.40
2023-03-10T07:31:07.764Z,81.10
2023-03-10T07:33:34.758Z,80.40
2023-03-10T07:36:06.049Z,80.30
2023-03-10T07:38:32.903Z,79.90
2023-03-10T07:41:01.902Z,80.10
2023-03-10T07:43:28.688Z,79.50
2023-03-10T07:45:55.690Z,79.00
2023-03-10T07:48:22.332Z,79.00
2023-03-10T07:50:55.567Z,78.70
2023-03-10T07:53:22.154Z,78.10
2023-03-10T07:55:49.004Z,77.80
2023-03-10T07:58:15.652Z,77.10
2023-03-10T08:00:42.488Z,76.60
2023-03-10T08:03:09.087Z,75.80
2023-03-10T08:05:41.908Z,75.40
2023-03-10T08:08:08.854Z,75.20
2023-03-10T08:10:36.812Z,75.10
2023-03-10T08:13:03.773Z,75.00
2023-03-10T08:15:30.489Z,74.30
2023-03-10T08:17:57.256Z,74.30
2023-03-10T08:20:24.146Z,74.00
2023-03-10T08:22:52.283Z,73.80
2023-03-10T08:25:18.923Z,73.30
2023-03-10T08:27:45.505Z,72.70
2023-03-10T08:30:12.551Z,72.40
2023-03-10T08:32:39.850Z,72.20
2023-03-10T08:35:07.143Z,72.00
2023-03-10T08:37:34.179Z,71.60
2023-03-10T08:40:03.059Z,71.60
2023-03-10T08:42:30.911Z,72.30
2023-03-10T08:44:57.559Z,71.30
2023-03-10T08:47:25.581Z,70.50
2023-03-10T08:49:55.785Z,69.90
2023-03-10T08:52:22.451Z,69.40
2023-03-10T08:54:49.125Z,69.60
2023-03-10T08:57:15.743Z,68.60
2023-03-10T08:59:42.358Z,67.90
2023-03-10T09:02:11.222Z,66.10
2023-03-10T09:04:37.862Z,66.20
2023-03-10T09:07:04.779Z,66.40
2023-03-10T09:09:31.417Z,66.50
2023-03-10T09:11:58.283Z,67.10
2023-03-10T09:14:25.802Z,67.10
2023-03-10T09:16:52.754Z,66.60
2023-03-10T09:19:19.707Z,66.20
2023-03-10T09:21:47.659Z,65.60
2023-03-10T09:24:15.345Z,64.90
2023-03-10T09:26:44.563Z,63.70
2023-03-10T09:29:12.134Z,63.60
2023-03-10T09:31:39.748Z,62.90
2023-03-10T09:34:08.101Z,62.70
2023-03-10T09:36:35.261Z,62.30
2023-03-10T09:39:02.500Z,62.50
2023-03-10T09:41:30.205Z,61.80
2023-03-10T09:44:16.584Z,61.00
2023-03-10T09:46:43.360Z,60.70
2023-03-10T09:49:23.114Z,59.60
2023-03-10T09:51:53.571Z,59.90
2023-03-10T09:54:27.931Z,59.70
2023-03-10T09:56:56.190Z,60.00
2023-03-10T09:59:34.322Z,58.30
2023-03-10T10:02:02.906Z,58.40
2023-03-10T10:04:40.160Z,58.80
2023-03-10T10:07:13.409Z,58.10
2023-03-10T10:09:43.611Z,56.60
2023-03-10T10:12:14.057Z,56.80
2023-03-10T10:14:48.170Z,57.30
2023-03-10T10:17:53.020Z,57.40
2023-03-10T10:20:31.337Z,56.10
2023-03-10T10:22:57.914Z,55.80
2023-03-10T10:25:25.338Z,55.60
2023-03-10T10:27:53.278Z,54.20
2023-03-10T10:30:27.480Z,53.90
2023-03-10T10:33:04.968Z,54.90
2023-03-10T10:35:36.577Z,56.10
2023-03-10T10:38:09.414Z,55.40
2023-03-10T10:40:47.539Z,53.20
2023-03-10T10:43:18.438Z,53.80
2023-03-10T10:45:51.331Z,52.30
2023-03-10T10:48:46.282Z,51.70
2023-03-10T10:51:19.361Z,51.70
2023-03-10T10:53:46.349Z,51.90
2023-03-10T10:56:14.225Z,52.70
2023-03-10T10:58:42.794Z,52.90
2023-03-10T11:01:12.494Z,51.00
2023-03-10T11:03:43.660Z,50.00
2023-03-10T11:06:14.223Z,50.40
2023-03-10T11:08:43.176Z,51.40
2023-03-10T11:11:15.830Z,51.40
2023-03-10T11:14:01.807Z,53.60
2023-03-10T11:16:31.819Z,53.00
2023-03-10T11:19:02.200Z,53.20
2023-03-10T11:21:30.221Z,52.50
2023-03-10T11:23:56.874Z,55.50
2023-03-10T11:26:33.438Z,55.70
2023-03-10T11:29:04.608Z,58.40
2023-03-10T11:31:40.267Z,59.20
2023-03-10T11:34:09.938Z,59.80
2023-03-10T11:36:53.465Z,60.50
2023-03-10T11:39:28.117Z,62.30
2023-03-10T11:42:00.040Z,60.40
2023-03-10T11:44:40.748Z,62.40
2023-03-10T11:47:07.406Z,62.40
2023-03-10T11:49:36.451Z,62.30
2023-03-10T11:52:07.665Z,62.00
2023-03-10T11:54:36.138Z,61.80
2023-03-10T11:57:20.274Z,62.10
2023-03-10T11:59:49.918Z,62.50
2023-03-10T12:02:40.123Z,60.40
2023-03-10T12:05:23.675Z,59.20
2023-03-10T12:07:53.565Z,60.00
2023-03-10T12:10:21.866Z,59.50
2023-03-10T12:12:49.714Z,60.70
2023-03-10T12:15:19.774Z,59.40
2023-03-10T12:17:46.952Z,58.40
2023-03-10T12:20:13.583Z,56.90
2023-03-10T12:22:46.287Z,57.20
2023-03-10T12:25:28.303Z,56.90
2023-03-10T12:28:14.030Z,56.50
2023-03-10T12:30:47.440Z,57.20
2023-03-10T12:33:34.317Z,57.20
2023-03-10T12:36:01.108Z,58.00
2023-03-10T12:38:27.897Z,58.60
2023-03-10T12:40:55.006Z,55.70
2023-03-10T12:43:40.547Z,55.90
2023-03-10T12:46:09.333Z,56.60
2023-03-10T12:48:41.275Z,56.00
2023-03-10T12:51:18.485Z,56.40
2023-03-10T12:53:47.332Z,57.20
2023-03-10T12:56:14.137Z,57.10
2023-03-10T12:58:45.976Z,54.50
2023-03-10T13:01:14.901Z,55.60
2023-03-10T13:03:44.404Z,56.60
2023-03-10T13:06:11.469Z,55.80
2023-03-10T13:08:42.126Z,54.50
2023-03-10T13:11:18.288Z,54.10
2023-03-10T13:13:47.559Z,54.70
2023-03-10T13:16:21.296Z,53.20
2023-03-10T13:18:52.380Z,54.10
2023-03-10T13:21:24.888Z,54.20
2023-03-10T13:23:51.971Z,54.10
2023-03-10T13:26:18.872Z,53.40
2023-03-10T13:28:56.237Z,54.50
2023-03-10T13:31:25.855Z,54.50
2023-03-10T13:33:54.240Z,54.30
2023-03-10T13:36:21.077Z,51.10
2023-03-10T13:38:48.113Z,51.10
2023-03-10T13:41:17.164Z,50.80
2023-03-10T13:43:45.059Z,52.20
2023-03-10T13:46:16.566Z,52.10
2023-03-10T13:48:43.790Z,51.20
2023-03-10T13:51:19.355Z,50.20
2023-03-10T13:53:47.667Z,51.50
2023-03-10T13:56:16.949Z,50.80
2023-03-10T13:58:44.619Z,50.30
2023-03-10T14:01:18.493Z,51.00
2023-03-10T14:03:49.044Z,49.10
2023-03-10T14:06:16.073Z,47.10
2023-03-10T14:08:42.995Z,48.60
2023-03-10T14:11:32.223Z,49.60
2023-03-10T14:13:59.311Z,47.60
2023-03-10T14:16:45.777Z,48.70
2023-03-10T14:19:12.443Z,50.10
2023-03-10T14:21:58.545Z,50.30
2023-03-10T14:24:28.147Z,51.20
2023-03-10T14:26:59.087Z,49.60
2023-03-10T14:29:26.197Z,49.20
2023-03-10T14:31:52.992Z,48.50
2023-03-10T14:34:19.667Z,50.00
2023-03-10T14:36:46.257Z,51.20
2023-03-10T14:39:13.033Z,49.90
2023-03-10T14:41:39.665Z,50.70
2023-03-10T14:44:07.031Z,50.30
2023-03-10T14:46:35.588Z,51.10
2023-03-10T14:49:03.483Z,50.90
2023-03-10T14:51:36.020Z,51.30
2023-03-10T14:54:03.611Z,52.90
2023-03-10T14:56:30.464Z,53.00
2023-03-10T14:59:01.957Z,52.40
2023-03-10T15:01:31.170Z,53.10
2023-03-10T15:03:57.928Z,52.30
2023-03-10T15:06:24.636Z,53.10
2023-03-10T15:08:51.315Z,53.20
2023-03-10T15:11:35.686Z,53.10
2023-03-10T15:14:05.039Z,54.50
2023-03-10T15:16:31.693Z,54.60
2023-03-10T15:18:58.369Z,55.30
2023-03-10T15:21:25.189Z,54.90
2023-03-10T15:23:52.013Z,54.60
2023-03-10T15:26:18.697Z,54.90
2023-03-10T15:28:45.618Z,55.60
2023-03-10T15:31:13.913Z,56.00
2023-03-10T15:33:40.623Z,56.00
2023-03-10T15:36:11.026Z,55.80
2023-03-10T15:38:38.832Z,57.10
2023-03-10T15:41:06.138Z,56.30
2023-03-10T15:43:32.952Z,56.80
2023-03-10T15:46:04.533Z,56.50
2023-03-10T15:48:31.493Z,55.40
2023-03-10T15:50:58.318Z,57.00
2023-03-10T15:53:27.850Z,57.30
2023-03-10T15:55:55.870Z,57.50
2023-03-10T15:58:24.868Z,59.10
2023-03-10T16:00:52.727Z,59.30
2023-03-10T16:03:19.377Z,60.70
2023-03-10T16:05:48.111Z,61.90
2023-03-10T16:08:15.109Z,61.40
2023-03-10T16:10:50.109Z,62.30
2023-03-10T16:13:16.667Z,62.50
2023-03-10T16:15:43.593Z,64.90
2023-03-10T16:18:10.171Z,65.60
2023-03-10T16:20:36.866Z,66.50
2023-03-10T16:23:04.038Z,67.10
2023-03-10T16:25:30.683Z,66.80
2023-03-10T16:27:57.345Z,67.70
2023-03-10T16:30:24.111Z,68.00
2023-03-10T16:32:52.573Z,68.80
2023-03-10T16:35:19.424Z,69.80
2023-03-10T16:37:46.144Z,70.30
2023-03-10T16:40:14.218Z,70.30
2023-03-10T16:42:45.352Z,71.20
2023-03-10T16:45:12.346Z,71.40
2023-03-10T16:47:39.193Z,72.00
2023-03-10T16:50:05.965Z,72.80
2023-03-10T16:52:38.598Z,73.50
2023-03-10T16:55:08.761Z,74.00
2023-03-10T16:57:36.035Z,74.30
2023-03-10T17:00:05.300Z,74.50
2023-03-10T17:02:32.118Z,75.20
2023-03-10T17:04:59.135Z,75.70
2023-03-10T17:07:26.081Z,76.10
2023-03-10T17:09:52.716Z,76.60
2023-03-10T17:12:19.493Z,77.30
2023-03-10T17:14:47.281Z,76.60
2023-03-10T17:17:14.281Z,76.60
2023-03-10T17:19:41.144Z,76.60
2023-03-10T17:22:07.942Z,76.50
2023-03-10T17:24:34.806Z,76.60
2023-03-10T17:27:01.464Z,76.50
2023-03-10T17:29:28.252Z,75.90
2023-03-10T17:31:55.064Z,76.50
2023-03-10T17:34:21.890Z,76.40
2023-03-10T17:36:51.605Z,76.50
2023-03-10T17:39:19.720Z,76.30
2023-03-10T17:41:46.466Z,75.80
2023-03-10T17:44:13.357Z,75.60
2023-03-10T17:46:43.099Z,75.20
2023-03-10T17:49:15.895Z,74.90
2023-03-10T17:51:44.663Z,74.70
2023-03-10T17:54:12.798Z,73.50
2023-03-10T17:56:39.715Z,73.40
2023-03-10T17:59:06.495Z,72.40
2023-03-10T18:01:33.970Z,72.00
2023-03-10T18:04:00.882Z,72.40
2023-03-10T18:06:29.851Z,71.10
2023-03-10T18:08:57.611Z,70.60
2023-03-10T18:11:27.828Z,70.60
2023-03-10T18:13:54.488Z,70.40
2023-03-10T18:16:23.913Z,70.20
2023-03-10T18:18:50.840Z,70.70
2023-03-10T18:21:18.915Z,70.20
2023-03-10T18:23:46.036Z,70.00
2023-03-10T18:26:14.402Z,69.80
2023-03-10T18:28:42.639Z,70.00
2023-03-10T18:31:10.580Z,68.90
2023-03-10T18:33:37.663Z,69.20
2023-03-10T18:36:06.821Z,68.70
2023-03-10T18:38:33.642Z,68.80
2023-03-10T18:41:01.140Z,68.10
2023-03-10T18:43:29.166Z,69.00
2023-03-10T18:45:56.338Z,68.50
2023-03-10T18:48:28.240Z,68.40
2023-03-10T18:50:56.198Z,67.70
2023-03-10T18:53:23.306Z,68.30
2023-03-10T18:55:50.260Z,68.50
2023-03-10T18:58:16.879Z,68.30
2023-03-10T19:00:43.767Z,67.90
2023-03-10T19:03:13.054Z,67.30
2023-03-10T19:05:40.087Z,67.20
2023-03-10T19:08:07.268Z,66.80
2023-03-10T19:10:33.874Z,66.90
2023-03-10T19:13:00.555Z,67.30
2023-03-10T19:15:28.452Z,67.10
2023-03-10T19:17:55.640Z,67.80
2023-03-10T19:20:23.547Z,67.60
2023-03-10T19:22:51.243Z,68.00
2023-03-10T19:25:18.661Z,68.00
2023-03-10T19:27:45.381Z,68.00
2023-03-10T19:30:14.053Z,67.80
2023-03-10T19:32:40.797Z,68.00
2023-03-10T19:35:08.834Z,68.10
2023-03-10T19:37:36.895Z,70.50
2023-03-10T19:40:06.036Z,73.30
2023-03-10T19:42:33.268Z,74.40
2023-03-10T19:44:59.909Z,75.40
2023-03-10T19:47:26.741Z,76.20
2023-03-10T19:49:54.691Z,76.00
2023-03-10T19:52:21.358Z,75.80
2023-03-10T19:54:48.528Z,76.00
2023-03-10T19:57:15.163Z,77.00
2023-03-10T19:59:41.983Z,77.00
2023-03-10T20:02:12.164Z,77.10
2023-03-10T20:04:39.433Z,77.70
2023-03-10T20:07:06.599Z,76.80
2023-03-10T20:09:33.363Z,77.40
2023-03-10T20:12:00.195Z,76.70
2023-03-10T20:14:26.986Z,76.30
2023-03-10T20:16:54.136Z,76.80
2023-03-10T20:19:22.970Z,76.30
2023-03-10T20:21:50.594Z,76.50
2023-03-10T20:24:18.038Z,76.50
2023-03-10T20:26:44.728Z,76.20
2023-03-10T20:29:11.859Z,76.80
2023-03-10T20:31:38.499Z,77.00
2023-03-10T20:34:07.847Z,77.20
2023-03-10T20:36:34.492Z,77.00
2023-03-10T20:39:01.417Z,77.10
2023-03-10T20:41:28.044Z,76.90
2023-03-10T20:43:55.319Z,76.60
2023-03-10T20:46:23.172Z,75.80
2023-03-10T20:48:50.769Z,76.20
2023-03-10T20:51:19.163Z,76.10
2023-03-10T20:53:46.131Z,75.40
2023-03-10T20:56:15.039Z,74.70
2023-03-10T20:58:41.965Z,74.20
2023-03-10T21:01:19.436Z,74.50
2023-03-10T21:03:46.485Z,74.50
2023-03-10T21:06:13.224Z,74.50
2023-03-10T21:08:39.982Z,74.40
2023-03-10T21:11:06.748Z,74.50
2023-03-10T21:13:34.908Z,74.50
2023-03-10T21:16:01.599Z,74.00
2023-03-10T21:18:28.308Z,74.40
2023-03-10T21:20:54.955Z,74.30
2023-03-10T21:23:21.688Z,74.20
2023-03-10T21:25:48.278Z,73.70
2023-03-10T21:28:15.231Z,73.80
2023-03-10T21:30:42.250Z,73.10
2023-03-10T21:33:08.982Z,72.90
2023-03-10T21:35:38.613Z,73.10
2023-03-10T21:38:05.388Z,72.60
2023-03-10T21:40:32.520Z,72.80
2023-03-10T21:43:02.079Z,72.90
2023-03-10T21:45:29.329Z,73.40
2023-03-10T21:47:56.047Z,75.30
2023-03-10T21:50:22.846Z,77.50
2023-03-10T21:52:51.821Z,77.30
2023-03-10T21:55:21.289Z,77.60
2023-03-10T21:57:47.959Z,78.70
2023-03-10T22:00:15.445Z,79.50
2023-03-10T22:02:42.055Z,79.50
2023-03-10T22:05:09.297Z,79.00
2023-03-10T22:07:35.985Z,78.90
2023-03-10T22:10:02.800Z,78.80
2023-03-10T22:12:29.439Z,77.70
2023-03-10T22:14:57.908Z,78.20
2023-03-10T22:17:25.592Z,78.40
2023-03-10T22:19:55.007Z,77.90
2023-03-10T22:22:22.399Z,77.10
2023-03-10T22:24:49.740Z,76.80
2023-03-10T22:27:16.863Z,77.00
2023-03-10T22:29:43.931Z,75.70
2023-03-10T22:32:10.798Z,76.40
2023-03-10T22:34:37.938Z,76.30
2023-03-10T22:37:05.418Z,76.40
2023-03-10T22:39:36.397Z,76.00
2023-03-10T22:42:04.817Z,75.30
2023-03-10T22:44:38.001Z,74.50
2023-03-10T22:47:05.462Z,74.30
2023-03-10T22:49:32.407Z,74.60
2023-03-10T22:51:59.121Z,74.50
2023-03-10T22:54:25.796Z,74.10
2023-03-10T22:56:52.538Z,74.20
2023-03-10T22:59:19.398Z,73.30
2023-03-10T23:01:46.174Z,71.70
2023-03-10T23:04:13.907Z,71.90
2023-03-10T23:06:42.067Z,72.90
2023-03-10T23:09:11.698Z,72.30
2023-03-10T23:11:38.351Z,71.70
2023-03-10T23:14:05.270Z,70.80
2023-03-10T23:16:36.276Z,70.50
2023-03-10T23:19:03.961Z,70.40
2023-03-10T23:21:30.886Z,69.50
2023-03-10T23:23:57.827Z,69.90
2023-03-10T23:26:24.741Z,70.00
2023-03-10T23:28:51.867Z,70.30
2023-03-10T23:31:20.068Z,70.80
2023-03-10T23:33:46.812Z,71.40
2023-03-10T23:36:13.804Z,72.00
2023-03-10T23:38:40.923Z,73.60
2023-03-10T23:41:09.437Z,74.40
2023-03-10T23:43:36.277Z,74.60
2023-03-10T23:46:06.815Z,74.50
2023-03-10T23:48:33.973Z,74.40
2023-03-10T23:51:01.473Z,73.40
2023-03-10T23:53:28.655Z,73.40
2023-03-10T23:56:00.185Z,72.50
2023-03-10T23:58:28.196Z,71.60
